Time;durP1;ratioP1;P1;durP2;ratioP2;P2;SDS_P1;SDS_P2;PMS_P1;PMS_P2;Temp;Humidity;BMP_temperature;BMP_pressure;BME280_temperature;BME280_humidity;BME280_pressure;Samples;Min_cycle;Max_cycle;Signal;HPM_P1;HPM_P2
2023/06/02 00:00:20;;;;;;;;;;;16.30;99.90;;;;;;5024798;28;19944;-68
2023/06/02 00:02:51;;;;;;;;;;;16.30;99.90;;;;;;5024714;28;20144;-68
2023/06/02 00:05:17;;;;;;;;;;;16.20;99.90;;;;;;5025016;28;19928;-69
2023/06/02 00:07:44;;;;;;;;;;;16.20;99.90;;;;;;5025073;28;19930;-68
2023/06/02 00:10:11;;;;;;;;;;;16.10;99.90;;;;;;5025546;28;19976;-68
2023/06/02 00:12:39;;;;;;;;;;;16.00;99.90;;;;;;5024863;28;19987;-69
2023/06/02 00:15:07;;;;;;;;;;;15.90;99.90;;;;;;5024751;28;20201;-68
2023/06/02 00:17:34;;;;;;;;;;;15.90;99.90;;;;;;5025223;28;19926;-68
2023/06/02 00:20:00;;;;;;;;;;;15.90;99.90;;;;;;5025115;28;20094;-68
2023/06/02 00:22:29;;;;;;;;;;;15.80;99.90;;;;;;5025391;28;19954;-68
2023/06/02 00:24:55;;;;;;;;;;;15.80;99.90;;;;;;5024381;28;19967;-68
2023/06/02 00:27:22;;;;;;;;;;;15.80;99.90;;;;;;5025072;28;19921;-69
2023/06/02 00:29:50;;;;;;;;;;;15.70;99.90;;;;;;5036484;28;19921;-69
2023/06/02 00:32:18;;;;;;;;;;;15.70;99.90;;;;;;5044497;28;19921;-68
2023/06/02 00:34:45;;;;;;;;;;;15.60;99.90;;;;;;5044764;28;19929;-68
2023/06/02 00:37:11;;;;;;;;;;;15.60;99.90;;;;;;5044561;28;19928;-68
2023/06/02 00:39:38;;;;;;;;;;;15.50;99.90;;;;;;5044857;28;19921;-69
2023/06/02 00:42:05;;;;;;;;;;;15.50;99.90;;;;;;5044620;28;19928;-68
2023/06/02 00:44:32;;;;;;;;;;;15.50;99.90;;;;;;5044539;28;20116;-67
2023/06/02 00:47:00;;;;;;;;;;;15.40;99.90;;;;;;5044320;28;19921;-67
2023/06/02 00:49:27;;;;;;;;;;;15.40;99.90;;;;;;5044536;28;19984;-69
2023/06/02 00:51:54;;;;;;;;;;;15.30;99.90;;;;;;5044651;28;19957;-68
2023/06/02 00:54:21;;;;;;;;;;;15.30;99.90;;;;;;5043611;28;19929;-69
2023/06/02 00:56:47;;;;;;;;;;;15.20;99.90;;;;;;5042927;28;19988;-68
2023/06/02 00:59:14;;;;;;;;;;;15.20;99.90;;;;;;5038093;28;19986;-68
2023/06/02 01:01:41;;;;;;;;;;;15.20;99.90;;;;;;5044501;28;19963;-68
2023/06/02 01:04:09;;;;;;;;;;;15.10;99.90;;;;;;5043623;28;19936;-68
2023/06/02 01:06:38;;;;;;;;;;;15.10;99.90;;;;;;5044024;28;19967;-68
2023/06/02 01:09:05;;;;;;;;;;;15.00;99.90;;;;;;5043999;28;19921;-68
2023/06/02 01:11:32;;;;;;;;;;;14.90;99.90;;;;;;5044071;28;19993;-68
2023/06/02 01:13:59;;;;;;;;;;;14.90;99.90;;;;;;5044038;28;19991;-68
2023/06/02 01:16:27;;;;;;;;;;;14.80;99.90;;;;;;5044060;28;19925;-68
2023/06/02 01:18:53;;;;;;;;;;;14.80;99.90;;;;;;5034532;28;19921;-68
2023/06/02 01:21:23;;;;;;;;;;;14.70;99.90;;;;;;5044002;28;19921;-69
2023/06/02 01:23:53;;;;;;;;;;;14.70;99.90;;;;;;5043277;28;19944;-69
2023/06/02 01:26:19;;;;;;;;;;;14.60;99.90;;;;;;5043915;28;19963;-68
2023/06/02 01:28:46;;;;;;;;;;;14.60;99.90;;;;;;5043628;28;19976;-68
2023/06/02 01:31:18;;;;;;;;;;;14.50;99.90;;;;;;5043544;28;19925;-67
2023/06/02 01:33:48;;;;;;;;;;;14.60;99.90;;;;;;5043405;28;19992;-68
2023/06/02 01:36:14;;;;;;;;;;;14.60;99.90;;;;;;5042937;28;19921;-68
2023/06/02 01:38:42;;;;;;;;;;;14.50;99.90;;;;;;5041271;28;20019;-68
2023/06/02 01:41:11;;;;;;;;;;;14.50;99.90;;;;;;5043724;28;19980;-68
2023/06/02 01:43:38;;;;;;;;;;;14.50;99.90;;;;;;5043597;28;19984;-69
2023/06/02 01:46:06;;;;;;;;;;;14.50;99.90;;;;;;5042757;28;19980;-68
2023/06/02 01:48:33;;;;;;;;;;;14.50;99.90;;;;;;5043586;28;19927;-68
2023/06/02 01:50:59;;;;;;;;;;;14.30;99.90;;;;;;5043534;28;19980;-68
2023/06/02 01:53:27;;;;;;;;;;;14.20;99.90;;;;;;5043551;28;19960;-68
2023/06/02 01:55:53;;;;;;;;;;;14.20;99.90;;;;;;5042288;28;19935;-68
2023/06/02 01:58:21;;;;;;;;;;;14.10;99.90;;;;;;5035388;28;19988;-68
2023/06/02 02:00:48;;;;;;;;;;;14.10;99.90;;;;;;5043432;28;19920;-68
2023/06/02 02:03:14;;;;;;;;;;;14.10;99.90;;;;;;5043223;28;20268;-68
2023/06/02 02:05:41;;;;;;;;;;;14.10;99.90;;;;;;5042660;28;20238;-68
2023/06/02 02:08:08;;;;;;;;;;;14.10;99.90;;;;;;5043262;28;19952;-68
2023/06/02 02:10:35;;;;;;;;;;;14.10;99.90;;;;;;5043171;28;20156;-67
2023/06/02 02:13:01;;;;;;;;;;;14.10;99.90;;;;;;5043318;28;19967;-68
2023/06/02 02:15:30;;;;;;;;;;;14.10;99.90;;;;;;5042420;28;19928;-68
2023/06/02 02:17:57;;;;;;;;;;;14.10;99.90;;;;;;5043407;28;19959;-68
2023/06/02 02:20:24;;;;;;;;;;;14.00;99.90;;;;;;5043403;28;19928;-67
2023/06/02 02:22:51;;;;;;;;;;;14.00;99.90;;;;;;5043206;28;19963;-68
2023/06/02 02:25:18;;;;;;;;;;;13.90;99.90;;;;;;5042421;28;19992;-67
2023/06/02 02:27:44;;;;;;;;;;;13.90;99.90;;;;;;5042234;28;19988;-67
2023/06/02 02:30:11;;;;;;;;;;;13.90;99.90;;;;;;5023048;28;19945;-67
2023/06/02 02:32:43;;;;;;;;;;;13.90;99.90;;;;;;5040616;28;19928;-69
2023/06/02 02:35:09;;;;;;;;;;;13.90;99.90;;;;;;5044001;28;19928;-68
2023/06/02 02:37:36;;;;;;;;;;;13.90;99.90;;;;;;5047143;28;19961;-67
2023/06/02 02:40:03;;;;;;;;;;;13.80;99.90;;;;;;5047148;28;19921;-67
2023/06/02 02:42:30;;;;;;;;;;;13.70;99.90;;;;;;5046733;28;19921;-68
2023/06/02 02:44:57;;;;;;;;;;;13.60;99.90;;;;;;5045999;28;19927;-69
2023/06/02 02:47:23;;;;;;;;;;;13.60;99.90;;;;;;5046722;28;19953;-66
2023/06/02 02:49:51;;;;;;;;;;;13.60;99.90;;;;;;5046527;28;19984;-68
2023/06/02 02:52:18;;;;;;;;;;;13.50;99.90;;;;;;5046941;28;19984;-68
2023/06/02 02:54:44;;;;;;;;;;;13.50;99.90;;;;;;5046106;28;19921;-69
2023/06/02 02:57:11;;;;;;;;;;;13.40;99.90;;;;;;5046772;28;19921;-68
2023/06/02 02:59:38;;;;;;;;;;;13.40;99.90;;;;;;5029925;28;20296;-68
2023/06/02 03:02:06;;;;;;;;;;;13.30;99.90;;;;;;5026792;28;20213;-68
2023/06/02 03:04:32;;;;;;;;;;;13.30;99.90;;;;;;5026117;28;19922;-68
2023/06/02 03:07:01;;;;;;;;;;;13.30;99.90;;;;;;5026788;28;19921;-68
2023/06/02 03:09:28;;;;;;;;;;;13.20;99.90;;;;;;5026493;28;19967;-69
2023/06/02 03:11:55;;;;;;;;;;;13.20;99.90;;;;;;5026745;28;19922;-68
2023/06/02 03:14:22;;;;;;;;;;;13.20;99.90;;;;;;5025775;28;19962;-69
2023/06/02 03:16:50;;;;;;;;;;;13.10;99.90;;;;;;5026112;28;19968;-68
2023/06/02 03:19:16;;;;;;;;;;;13.10;99.90;;;;;;5038077;28;19921;-68
2023/06/02 03:21:44;;;;;;;;;;;13.10;99.90;;;;;;5046175;28;19921;-68
2023/06/02 03:24:13;;;;;;;;;;;13.00;99.90;;;;;;5045730;28;19929;-68
2023/06/02 03:26:40;;;;;;;;;;;13.00;99.90;;;;;;5046013;28;20000;-68
2023/06/02 03:29:07;;;;;;;;;;;13.00;99.90;;;;;;5046292;28;19967;-68
2023/06/02 03:31:34;;;;;;;;;;;12.90;99.90;;;;;;5046189;28;19921;-68
2023/06/02 03:34:00;;;;;;;;;;;12.80;99.90;;;;;;5045658;28;20227;-68
2023/06/02 03:36:27;;;;;;;;;;;12.70;99.90;;;;;;5046501;28;19956;-68
2023/06/02 03:38:54;;;;;;;;;;;12.70;99.90;;;;;;5046310;28;19984;-67
2023/06/02 03:41:22;;;;;;;;;;;12.80;99.90;;;;;;5046042;28;19928;-67
2023/06/02 03:43:48;;;;;;;;;;;12.70;99.90;;;;;;5045885;28;19964;-68
2023/06/02 03:46:15;;;;;;;;;;;12.60;99.90;;;;;;5044433;28;20005;-67
2023/06/02 03:48:42;;;;;;;;;;;12.60;99.90;;;;;;5045857;28;20161;-68
2023/06/02 03:51:08;;;;;;;;;;;12.60;99.90;;;;;;5045863;28;20156;-68
2023/06/02 03:53:35;;;;;;;;;;;12.60;99.90;;;;;;5045544;28;19975;-68
2023/06/02 03:56:01;;;;;;;;;;;12.50;99.90;;;;;;5044850;28;19984;-68
2023/06/02 03:58:29;;;;;;;;;;;12.50;99.90;;;;;;5045684;28;19927;-68
2023/06/02 04:00:56;;;;;;;;;;;12.50;99.90;;;;;;5037086;28;19921;-68
2023/06/02 04:03:23;;;;;;;;;;;12.60;99.90;;;;;;5045475;28;19921;-69
2023/06/02 04:05:50;;;;;;;;;;;12.50;99.90;;;;;;5044597;28;19921;-67
2023/06/02 04:08:16;;;;;;;;;;;12.50;99.90;;;;;;5045585;28;19925;-69
2023/06/02 04:10:43;;;;;;;;;;;12.50;99.90;;;;;;5045196;28;19967;-67
2023/06/02 04:13:10;;;;;;;;;;;12.50;99.90;;;;;;5045278;28;20158;-68
2023/06/02 04:15:38;;;;;;;;;;;12.50;99.90;;;;;;5044545;28;19956;-68
2023/06/02 04:18:05;;;;;;;;;;;12.50;99.90;;;;;;5045063;28;19925;-67
2023/06/02 04:20:31;;;;;;;;;;;12.60;99.90;;;;;;5045361;28;19921;-68
2023/06/02 04:22:58;;;;;;;;;;;12.60;99.90;;;;;;5045112;28;19975;-68
2023/06/02 04:25:25;;;;;;;;;;;12.70;99.90;;;;;;5044449;28;20173;-68
2023/06/02 04:27:51;;;;;;;;;;;12.70;99.90;;;;;;5044091;28;19921;-68
2023/06/02 04:30:18;;;;;;;;;;;12.70;99.90;;;;;;5040379;28;20235;-68
2023/06/02 04:32:46;;;;;;;;;;;12.70;99.90;;;;;;5025192;28;19952;-68
2023/06/02 04:35:13;;;;;;;;;;;12.80;99.90;;;;;;5039803;28;19921;-68
2023/06/02 04:37:43;;;;;;;;;;;12.80;99.90;;;;;;5044639;28;20227;-68
2023/06/02 04:40:10;;;;;;;;;;;12.80;99.90;;;;;;5027282;28;20205;-68
2023/06/02 04:42:38;;;;;;;;;;;12.80;99.90;;;;;;5025003;28;20165;-68
2023/06/02 04:45:06;;;;;;;;;;;12.90;99.90;;;;;;5035697;28;19929;-68
2023/06/02 04:47:32;;;;;;;;;;;12.90;99.90;;;;;;5024962;28;19928;-68
2023/06/02 04:50:00;;;;;;;;;;;12.90;99.90;;;;;;5035992;28;19959;-70
2023/06/02 04:52:27;;;;;;;;;;;13.00;99.90;;;;;;5044532;28;20239;-69
2023/06/02 04:54:53;;;;;;;;;;;13.10;99.90;;;;;;5044324;28;20001;-68
2023/06/02 04:57:20;;;;;;;;;;;13.10;99.90;;;;;;5044113;28;19921;-70
2023/06/02 04:59:47;;;;;;;;;;;13.10;99.90;;;;;;5043976;28;19959;-68
2023/06/02 05:02:13;;;;;;;;;;;13.20;99.90;;;;;;5044287;28;20260;-67
2023/06/02 05:04:40;;;;;;;;;;;13.20;99.90;;;;;;5044088;28;19960;-66
2023/06/02 05:07:08;;;;;;;;;;;13.20;99.90;;;;;;5044449;28;19988;-67
2023/06/02 05:09:34;;;;;;;;;;;13.20;99.90;;;;;;5044382;28;19921;-67
2023/06/02 05:12:02;;;;;;;;;;;13.20;99.90;;;;;;5044117;28;19988;-67
2023/06/02 05:14:28;;;;;;;;;;;13.30;99.90;;;;;;5043907;28;19928;-67
2023/06/02 05:16:56;;;;;;;;;;;13.30;99.90;;;;;;5044242;28;19921;-67
2023/06/02 05:19:22;;;;;;;;;;;13.30;99.90;;;;;;5043913;28;20140;-67
2023/06/02 05:21:49;;;;;;;;;;;13.40;99.90;;;;;;5044215;28;19988;-68
2023/06/02 05:24:17;;;;;;;;;;;13.40;99.90;;;;;;5043934;28;20005;-68
2023/06/02 05:26:43;;;;;;;;;;;13.50;99.90;;;;;;5043428;28;19921;-68
2023/06/02 05:29:10;;;;;;;;;;;13.60;99.90;;;;;;5044173;28;19952;-69
2023/06/02 05:31:36;;;;;;;;;;;13.60;99.90;;;;;;5043915;28;19955;-67
2023/06/02 05:34:03;;;;;;;;;;;13.70;99.90;;;;;;5043371;28;20000;-67
2023/06/02 05:36:30;;;;;;;;;;;13.80;99.90;;;;;;5043869;28;19928;-67
2023/06/02 05:38:56;;;;;;;;;;;13.80;99.90;;;;;;5043759;28;19956;-68
2023/06/02 05:41:27;;;;;;;;;;;13.90;99.90;;;;;;5043930;28;19959;-71
2023/06/02 05:43:54;;;;;;;;;;;13.90;99.90;;;;;;5043387;28;20224;-68
2023/06/02 05:46:21;;;;;;;;;;;13.90;99.90;;;;;;5043086;28;19927;-68
2023/06/02 05:48:47;;;;;;;;;;;13.90;99.90;;;;;;5043758;28;19959;-68
2023/06/02 05:51:14;;;;;;;;;;;13.80;99.90;;;;;;5043547;28;19989;-67
2023/06/02 05:53:41;;;;;;;;;;;13.90;99.90;;;;;;5042878;28;19921;-67
2023/06/02 05:56:07;;;;;;;;;;;13.90;99.90;;;;;;5043430;28;19953;-68
2023/06/02 05:58:38;;;;;;;;;;;14.00;99.90;;;;;;5042986;28;19928;-68
2023/06/02 06:01:05;;;;;;;;;;;13.90;99.90;;;;;;5035635;28;19937;-68
2023/06/02 06:03:31;;;;;;;;;;;13.90;99.90;;;;;;5043492;28;19921;-68
2023/06/02 06:05:58;;;;;;;;;;;13.90;99.90;;;;;;5042918;28;19960;-68
2023/06/02 06:08:25;;;;;;;;;;;13.90;99.90;;;;;;5043279;28;19952;-70
2023/06/02 06:10:51;;;;;;;;;;;14.00;99.90;;;;;;5043004;28;19988;-68
2023/06/02 06:13:18;;;;;;;;;;;14.00;99.90;;;;;;5043324;28;19928;-68
2023/06/02 06:15:47;;;;;;;;;;;14.00;99.90;;;;;;5042944;28;19996;-68
2023/06/02 06:18:14;;;;;;;;;;;14.00;99.90;;;;;;5043154;28;19963;-68
2023/06/02 06:20:41;;;;;;;;;;;14.00;99.90;;;;;;5043370;28;19952;-68
2023/06/02 06:23:08;;;;;;;;;;;14.10;99.90;;;;;;5043221;28;19928;-68
2023/06/02 06:25:35;;;;;;;;;;;14.10;99.90;;;;;;5042754;28;19948;-68
2023/06/02 06:28:01;;;;;;;;;;;14.10;99.90;;;;;;5042964;28;19956;-68
2023/06/02 06:30:28;;;;;;;;;;;14.10;99.90;;;;;;5042930;28;20259;-68
2023/06/02 06:32:56;;;;;;;;;;;14.20;99.90;;;;;;5043225;28;19921;-68
2023/06/02 06:35:22;;;;;;;;;;;14.20;99.90;;;;;;5042645;28;19992;-68
2023/06/02 06:37:49;;;;;;;;;;;14.30;99.90;;;;;;5042836;28;20283;-68
2023/06/02 06:40:16;;;;;;;;;;;14.30;99.90;;;;;;5043004;28;20206;-68
2023/06/02 06:42:42;;;;;;;;;;;14.40;99.90;;;;;;5043190;28;19988;-68
2023/06/02 06:45:10;;;;;;;;;;;14.40;99.90;;;;;;5042767;28;20173;-68
2023/06/02 06:47:36;;;;;;;;;;;14.50;99.90;;;;;;5043051;28;19992;-68
2023/06/02 06:50:05;;;;;;;;;;;14.50;99.90;;;;;;5043063;28;19988;-68
2023/06/02 06:52:31;;;;;;;;;;;14.60;99.90;;;;;;5043157;28;20216;-67
2023/06/02 06:54:58;;;;;;;;;;;14.70;99.90;;;;;;5042618;28;19960;-68
2023/06/02 06:57:24;;;;;;;;;;;14.80;99.90;;;;;;5042829;28;19955;-68
2023/06/02 06:59:51;;;;;;;;;;;14.80;99.90;;;;;;5042347;28;20268;-68
2023/06/02 07:02:18;;;;;;;;;;;14.90;99.90;;;;;;5042905;28;19952;-68
2023/06/02 07:04:44;;;;;;;;;;;14.90;99.90;;;;;;5042363;28;19921;-68
2023/06/02 07:07:14;;;;;;;;;;;15.00;99.90;;;;;;5042821;28;20168;-68
2023/06/02 07:09:41;;;;;;;;;;;14.90;99.90;;;;;;5042551;28;19944;-68
2023/06/02 07:12:08;;;;;;;;;;;14.90;99.90;;;;;;5037119;28;19985;-68
2023/06/02 07:14:34;;;;;;;;;;;15.00;99.90;;;;;;5022549;28;19921;-68
2023/06/02 07:17:01;;;;;;;;;;;15.00;99.90;;;;;;5023015;28;20176;-68
2023/06/02 07:19:29;;;;;;;;;;;15.10;99.90;;;;;;5022119;28;19961;-67
2023/06/02 07:21:55;;;;;;;;;;;15.10;99.90;;;;;;5024415;28;19957;-68
2023/06/02 07:24:23;;;;;;;;;;;15.20;99.90;;;;;;5026371;28;19992;-68
2023/06/02 07:26:50;;;;;;;;;;;15.40;99.90;;;;;;5026327;28;19989;-69
2023/06/02 07:29:17;;;;;;;;;;;15.40;99.90;;;;;;5026569;28;19988;-68
2023/06/02 07:31:44;;;;;;;;;;;15.50;99.90;;;;;;5026533;28;19921;-67
2023/06/02 07:34:11;;;;;;;;;;;15.50;99.90;;;;;;5026161;28;19922;-68
2023/06/02 07:36:38;;;;;;;;;;;15.50;99.90;;;;;;5026179;28;20399;-68
2023/06/02 07:39:07;;;;;;;;;;;15.60;99.90;;;;;;5025807;28;19921;-68
2023/06/02 07:41:35;;;;;;;;;;;15.70;99.90;;;;;;5040803;28;19921;-68
2023/06/02 07:44:02;;;;;;;;;;;15.70;99.90;;;;;;5045586;28;19927;-68
2023/06/02 07:46:29;;;;;;;;;;;15.90;99.90;;;;;;5045907;28;19956;-68
2023/06/02 07:48:57;;;;;;;;;;;15.90;99.90;;;;;;5045533;28;19961;-68
2023/06/02 07:51:24;;;;;;;;;;;16.10;99.90;;;;;;5045931;28;19928;-67
2023/06/02 07:53:51;;;;;;;;;;;16.20;99.90;;;;;;5045895;28;19984;-68
2023/06/02 07:56:23;;;;;;;;;;;16.30;99.90;;;;;;5045011;28;19995;-68
2023/06/02 07:58:51;;;;;;;;;;;16.30;99.90;;;;;;5037537;28;19928;-68
2023/06/02 08:01:18;;;;;;;;;;;16.30;99.90;;;;;;5045776;28;19928;-68
2023/06/02 08:03:44;;;;;;;;;;;16.30;99.90;;;;;;5045562;28;20116;-68
2023/06/02 08:06:11;;;;;;;;;;;16.40;99.90;;;;;;5045062;28;20228;-68
2023/06/02 08:08:38;;;;;;;;;;;16.50;99.90;;;;;;5045582;28;19921;-68
2023/06/02 08:11:04;;;;;;;;;;;16.60;99.90;;;;;;5045177;28;19956;-67
2023/06/02 08:13:31;;;;;;;;;;;16.70;99.90;;;;;;5045471;28;19921;-68
2023/06/02 08:15:59;;;;;;;;;;;16.70;99.90;;;;;;5044782;28;20179;-68
2023/06/02 08:18:26;;;;;;;;;;;16.70;99.90;;;;;;5045438;28;19921;-68
2023/06/02 08:20:53;;;;;;;;;;;16.70;99.90;;;;;;5045362;28;20153;-67
2023/06/02 08:23:19;;;;;;;;;;;16.70;99.90;;;;;;5045274;28;19989;-68
2023/06/02 08:25:46;;;;;;;;;;;16.80;99.90;;;;;;5044917;28;19956;-68
2023/06/02 08:28:13;;;;;;;;;;;16.90;99.90;;;;;;5044989;28;19921;-68
2023/06/02 08:30:42;;;;;;;;;;;16.90;99.90;;;;;;5045249;28;19988;-68
2023/06/02 08:33:10;;;;;;;;;;;16.90;99.90;;;;;;5044888;28;20223;-68
2023/06/02 08:35:37;;;;;;;;;;;17.00;99.90;;;;;;5044866;28;19928;-68
2023/06/02 08:38:07;;;;;;;;;;;17.10;99.90;;;;;;5044705;28;19936;-68
2023/06/02 08:40:35;;;;;;;;;;;17.20;99.90;;;;;;5044473;28;19921;-68
2023/06/02 08:43:03;;;;;;;;;;;17.30;99.90;;;;;;5044677;28;19984;-68
2023/06/02 08:45:29;;;;;;;;;;;17.30;99.90;;;;;;5044114;28;20272;-68
2023/06/02 08:47:57;;;;;;;;;;;17.40;99.90;;;;;;5044592;28;21518;-68
2023/06/02 08:50:28;;;;;;;;;;;17.50;99.90;;;;;;5044352;28;19933;-68
2023/06/02 08:52:56;;;;;;;;;;;17.60;99.90;;;;;;5028835;28;19928;-68
2023/06/02 08:55:23;;;;;;;;;;;17.70;99.90;;;;;;5043956;28;19931;-68
2023/06/02 08:57:49;;;;;;;;;;;17.80;99.90;;;;;;5044008;28;19921;-68
2023/06/02 09:00:17;;;;;;;;;;;17.80;99.90;;;;;;5044096;28;19948;-68
2023/06/02 09:02:43;;;;;;;;;;;17.90;99.90;;;;;;5044527;28;19922;-68
2023/06/02 09:05:10;;;;;;;;;;;17.90;99.90;;;;;;5043836;28;19921;-68
2023/06/02 09:07:38;;;;;;;;;;;17.90;99.90;;;;;;5043595;28;19959;-68
2023/06/02 09:10:06;;;;;;;;;;;18.00;99.90;;;;;;5024330;28;19960;-69
2023/06/02 09:12:46;;;;;;;;;;;18.10;99.90;;;;;;5024309;28;19988;-68
2023/06/02 09:15:13;;;;;;;;;;;18.20;99.90;;;;;;5024204;28;19954;-68
2023/06/02 09:17:40;;;;;;;;;;;18.30;99.90;;;;;;5024451;28;19929;-68
2023/06/02 09:20:10;;;;;;;;;;;18.30;99.90;;;;;;5024343;28;19972;-68
2023/06/02 09:22:52;;;;;;;;;;;18.40;99.90;;;;;;5023988;28;19922;-68
2023/06/02 09:25:21;;;;;;;;;;;18.40;99.90;;;;;;5023703;28;19988;-68
2023/06/02 09:27:51;;;;;;;;;;;18.50;99.90;;;;;;5023998;28;19921;-68
2023/06/02 09:30:18;;;;;;;;;;;18.50;99.90;;;;;;5024130;28;19922;-67
2023/06/02 09:32:51;;;;;;;;;;;18.60;99.90;;;;;;5023919;28;19949;-68
2023/06/02 09:35:32;;;;;;;;;;;18.70;99.90;;;;;;5023857;28;19988;-67
2023/06/02 09:38:00;;;;;;;;;;;18.80;99.90;;;;;;5040633;28;20237;-68
2023/06/02 09:40:27;;;;;;;;;;;18.90;99.90;;;;;;5042052;28;19952;-68
2023/06/02 09:42:54;;;;;;;;;;;18.90;99.90;;;;;;5043138;28;19925;-68
2023/06/02 09:45:20;;;;;;;;;;;18.90;99.90;;;;;;5042772;28;19960;-67
2023/06/02 09:47:48;;;;;;;;;;;19.00;99.90;;;;;;5038330;28;20045;-68
2023/06/02 09:50:30;;;;;;;;;;;19.20;99.90;;;;;;5026123;28;19921;-68
2023/06/02 09:53:02;;;;;;;;;;;19.30;99.90;;;;;;5023653;28;19959;-67
2023/06/02 09:55:29;;;;;;;;;;;19.40;99.90;;;;;;5030792;28;20127;-67
2023/06/02 09:57:57;;;;;;;;;;;19.50;99.90;;;;;;5043213;28;19988;-67
2023/06/02 10:00:24;;;;;;;;;;;19.60;99.90;;;;;;5043582;28;19921;-67
2023/06/02 10:02:51;;;;;;;;;;;19.60;99.90;;;;;;5043127;28;19951;-68
2023/06/02 10:05:22;;;;;;;;;;;19.60;99.90;;;;;;5042343;28;20995;-68
2023/06/02 10:07:52;;;;;;;;;;;19.70;99.90;;;;;;5043161;28;20323;-68
2023/06/02 10:10:24;;;;;;;;;;;19.70;99.90;;;;;;5043149;28;19921;-67
2023/06/02 10:12:59;;;;;;;;;;;19.80;99.90;;;;;;5043124;28;19956;-67
2023/06/02 10:15:36;;;;;;;;;;;19.90;99.90;;;;;;5043035;28;20112;-68
2023/06/02 10:18:11;;;;;;;;;;;20.00;99.90;;;;;;5043414;28;19921;-68
2023/06/02 10:20:40;;;;;;;;;;;20.10;99.90;;;;;;5039270;28;19921;-67
2023/06/02 10:23:11;;;;;;;;;;;20.20;99.90;;;;;;5023485;28;20001;-68
2023/06/02 10:25:46;;;;;;;;;;;20.30;99.90;;;;;;5022877;28;19963;-68
2023/06/02 10:28:13;;;;;;;;;;;20.50;99.90;;;;;;5023178;28;19993;-68
2023/06/02 10:30:40;;;;;;;;;;;20.60;99.90;;;;;;5028880;28;19921;-68
2023/06/02 10:33:07;;;;;;;;;;;20.50;99.90;;;;;;5042945;28;19920;-67
2023/06/02 10:35:52;;;;;;;;;;;20.60;99.90;;;;;;5042860;28;19956;-67
2023/06/02 10:38:26;;;;;;;;;;;20.80;99.90;;;;;;5042825;28;19988;-67
2023/06/02 10:40:54;;;;;;;;;;;20.80;99.90;;;;;;5042933;28;19927;-67
2023/06/02 10:43:22;;;;;;;;;;;20.80;99.90;;;;;;5023399;28;19928;-68
2023/06/02 10:45:49;;;;;;;;;;;21.00;99.90;;;;;;5022972;28;19922;-68
2023/06/02 10:48:40;;;;;;;;;;;21.00;99.90;;;;;;5031231;28;19984;-67
2023/06/02 10:51:08;;;;;;;;;;;21.10;99.90;;;;;;5008331;28;19930;-68
2023/06/02 10:53:56;;;;;;;;;;;21.20;99.90;;;;;;5022974;28;20176;-67
2023/06/02 10:56:43;;;;;;;;;;;21.30;99.90;;;;;;5040707;28;19933;-70
2023/06/02 10:59:10;;;;;;;;;;;21.40;99.90;;;;;;5045622;28;19928;-68
2023/06/02 11:01:49;;;;;;;;;;;21.50;99.90;;;;;;5045889;28;20280;-68
2023/06/02 11:04:28;;;;;;;;;;;21.60;99.90;;;;;;5046399;28;19921;-68
2023/06/02 11:07:15;;;;;;;;;;;21.80;99.90;;;;;;5046120;28;19959;-68
2023/06/02 11:09:43;;;;;;;;;;;22.00;99.90;;;;;;5046385;28;19921;-68
2023/06/02 11:12:11;;;;;;;;;;;22.20;99.90;;;;;;5046567;28;19921;-68
2023/06/02 11:15:05;;;;;;;;;;;22.40;99.90;;;;;;5046055;28;20231;-68
2023/06/02 11:17:32;;;;;;;;;;;22.60;99.90;;;;;;4999214;28;19963;-69
2023/06/02 11:19:59;;;;;;;;;;;22.70;99.90;;;;;;5026688;28;19956;-68
2023/06/02 11:22:28;;;;;;;;;;;22.80;99.90;;;;;;5025531;28;20009;-68
2023/06/02 11:24:55;;;;;;;;;;;22.70;99.90;;;;;;5026237;28;19925;-68
2023/06/02 11:27:36;;;;;;;;;;;22.70;99.90;;;;;;5026120;28;20224;-68
2023/06/02 11:30:06;;;;;;;;;;;22.70;99.90;;;;;;5026614;28;19921;-68
2023/06/02 11:32:33;;;;;;;;;;;22.90;99.90;;;;;;5026263;28;19957;-71
2023/06/02 11:35:01;;;;;;;;;;;23.00;99.90;;;;;;5026189;28;19989;-69
2023/06/02 11:37:27;;;;;;;;;;;23.00;99.90;;;;;;5026296;28;20094;-69
2023/06/02 11:39:54;;;;;;;;;;;23.00;99.90;;;;;;5026297;28;19984;-69
2023/06/02 11:42:32;;;;;;;;;;;22.90;99.90;;;;;;5026303;28;19957;-73
2023/06/02 11:45:00;;;;;;;;;;;22.70;99.90;;;;;;5025769;28;20202;-69
2023/06/02 11:47:27;;;;;;;;;;;22.70;99.90;;;;;;5032066;28;19929;-69
2023/06/02 11:49:54;;;;;;;;;;;22.50;99.90;;;;;;5036285;28;19967;-69
2023/06/02 11:52:20;;;;;;;;;;;22.50;99.90;;;;;;5045860;28;19996;-69
2023/06/02 11:54:51;;;;;;;;;;;22.60;99.90;;;;;;5045170;28;20004;-70
2023/06/02 11:57:30;;;;;;;;;;;22.60;99.90;;;;;;5045650;28;19921;-69
2023/06/02 12:00:10;;;;;;;;;;;22.60;99.90;;;;;;5045507;28;19929;-69
2023/06/02 12:02:39;;;;;;;;;;;22.80;99.90;;;;;;5045560;28;20205;-70
2023/06/02 12:05:09;;;;;;;;;;;23.00;99.90;;;;;;5045390;28;19991;-69
2023/06/02 12:07:36;;;;;;;;;;;23.00;99.90;;;;;;5044738;28;19927;-69
2023/06/02 12:10:03;;;;;;;;;;;23.20;99.90;;;;;;5040900;28;19925;-69
2023/06/02 12:12:31;;;;;;;;;;;23.30;99.90;;;;;;5030175;28;19921;-68
2023/06/02 12:14:57;;;;;;;;;;;23.30;99.90;;;;;;5044762;28;19936;-68
2023/06/02 12:17:25;;;;;;;;;;;23.20;99.90;;;;;;5040664;28;20000;-69
2023/06/02 12:19:58;;;;;;;;;;;22.90;99.90;;;;;;5027603;28;19921;-69
2023/06/02 12:22:25;;;;;;;;;;;23.00;99.90;;;;;;5044187;28;19921;-69
2023/06/02 12:24:52;;;;;;;;;;;23.30;99.90;;;;;;5044897;28;19940;-69
2023/06/02 12:27:22;;;;;;;;;;;23.60;99.90;;;;;;5044827;28;19927;-69
2023/06/02 12:29:49;;;;;;;;;;;23.60;99.90;;;;;;5045127;28;19963;-69
2023/06/02 12:32:24;;;;;;;;;;;23.40;99.90;;;;;;5045218;28;19921;-68
2023/06/02 12:34:52;;;;;;;;;;;23.50;99.90;;;;;;5044766;28;19988;-68
2023/06/02 12:37:19;;;;;;;;;;;23.50;99.90;;;;;;5044969;28;19921;-69
2023/06/02 12:39:45;;;;;;;;;;;23.60;99.90;;;;;;5044759;28;20235;-70
2023/06/02 12:42:14;;;;;;;;;;;23.70;99.90;;;;;;5043923;28;19928;-68
2023/06/02 12:44:41;;;;;;;;;;;23.70;99.90;;;;;;5043116;28;19921;-68
2023/06/02 12:47:08;;;;;;;;;;;24.00;99.90;;;;;;5044045;28;19988;-70
2023/06/02 12:49:34;;;;;;;;;;;23.80;99.90;;;;;;5038725;28;19920;-69
2023/06/02 12:52:03;;;;;;;;;;;24.00;99.90;;;;;;5036018;28;19957;-69
2023/06/02 12:54:29;;;;;;;;;;;24.00;99.90;;;;;;5044103;28;20263;-70
2023/06/02 12:56:56;;;;;;;;;;;23.80;99.90;;;;;;5044272;28;20389;-68
2023/06/02 12:59:23;;;;;;;;;;;23.80;99.90;;;;;;5025761;28;20140;-69
2023/06/02 13:01:50;;;;;;;;;;;23.90;99.90;;;;;;5024925;28;19927;-69
2023/06/02 13:04:16;;;;;;;;;;;24.20;99.90;;;;;;5024428;28;19989;-69
2023/06/02 13:06:43;;;;;;;;;;;24.30;99.90;;;;;;5033308;28;19921;-69
2023/06/02 13:09:12;;;;;;;;;;;24.50;99.90;;;;;;5044138;28;20284;-69
2023/06/02 13:11:39;;;;;;;;;;;24.80;99.90;;;;;;5044433;28;19963;-68
2023/06/02 13:14:06;;;;;;;;;;;24.70;99.90;;;;;;5044228;28;19956;-69
2023/06/02 13:16:33;;;;;;;;;;;24.80;99.90;;;;;;5043820;28;19928;-66
2023/06/02 13:19:00;;;;;;;;;;;25.00;99.90;;;;;;5043262;28;19927;-67
2023/06/02 13:21:26;;;;;;;;;;;25.10;99.90;;;;;;5042603;28;19989;-70
2023/06/02 13:23:53;;;;;;;;;;;25.20;99.90;;;;;;5042296;28;19924;-65
2023/06/02 13:26:22;;;;;;;;;;;25.00;99.90;;;;;;5042180;28;19921;-66
2023/06/02 13:28:49;;;;;;;;;;;25.00;99.90;;;;;;5043724;28;19954;-68
2023/06/02 13:31:15;;;;;;;;;;;25.00;99.90;;;;;;5043296;28;20159;-68
2023/06/02 13:33:42;;;;;;;;;;;25.20;99.90;;;;;;5043581;28;19988;-68
2023/06/02 13:36:09;;;;;;;;;;;25.20;99.90;;;;;;5042870;28;20017;-68
2023/06/02 13:38:35;;;;;;;;;;;25.20;99.30;;;;;;5042082;28;19947;-68
2023/06/02 13:41:02;;;;;;;;;;;25.20;99.10;;;;;;5043999;28;19927;-68
2023/06/02 13:43:32;;;;;;;;;;;25.30;99.40;;;;;;5042735;28;19929;-69
2023/06/02 13:45:59;;;;;;;;;;;25.30;99.50;;;;;;5043232;28;19991;-67
2023/06/02 13:48:25;;;;;;;;;;;25.10;99.20;;;;;;5035141;28;19953;-67
2023/06/02 13:50:52;;;;;;;;;;;25.20;99.90;;;;;;5041765;28;19964;-67
2023/06/02 13:53:19;;;;;;;;;;;25.30;98.60;;;;;;5043243;28;20264;-67
2023/06/02 13:55:45;;;;;;;;;;;25.10;98.90;;;;;;5042934;28;19956;-67
2023/06/02 13:58:12;;;;;;;;;;;25.10;99.00;;;;;;5043549;28;19992;-67
2023/06/02 14:00:40;;;;;;;;;;;25.20;98.90;;;;;;5043355;28;19959;-66
2023/06/02 14:03:07;;;;;;;;;;;25.20;97.80;;;;;;5043558;28;20085;-68
2023/06/02 14:05:34;;;;;;;;;;;25.20;97.40;;;;;;5042873;28;19963;-67
2023/06/02 14:08:01;;;;;;;;;;;25.10;97.50;;;;;;5043231;28;19921;-67
2023/06/02 14:10:27;;;;;;;;;;;25.10;97.40;;;;;;5043434;28;19984;-67
2023/06/02 14:12:54;;;;;;;;;;;25.30;97.70;;;;;;5043416;28;20170;-67
2023/06/02 14:15:21;;;;;;;;;;;25.50;97.70;;;;;;5042804;28;19921;-67
2023/06/02 14:17:49;;;;;;;;;;;25.50;96.70;;;;;;5043079;28;19921;-67
2023/06/02 14:20:15;;;;;;;;;;;25.60;97.30;;;;;;5043322;28;20112;-67